createdAt,value
2023-05-01T00:01:02.394Z,7.74
2023-05-01T00:04:08.724Z,7.76
2023-05-01T00:07:16.507Z,7.62
2023-05-01T00:10:22.673Z,7.36
2023-05-01T00:13:28.685Z,7.57
2023-05-01T00:16:36.361Z,7.35
2023-05-01T00:19:42.480Z,7.45
2023-05-01T00:22:49.879Z,7.31
2023-05-01T00:25:55.780Z,7.16
2023-05-01T00:29:02.070Z,5.95
2023-05-01T00:32:08.508Z,6.48
2023-05-01T00:35:14.581Z,6.19
2023-05-01T00:38:23.961Z,6.58
2023-05-01T00:41:30.351Z,6.46
2023-05-01T00:44:36.540Z,6.47
2023-05-01T00:47:42.710Z,6.65
2023-05-01T00:50:50.405Z,6.56
2023-05-01T00:54:00.950Z,5.80
2023-05-01T00:57:08.411Z,5.73
2023-05-01T01:00:16.976Z,5.40
2023-05-01T01:03:23.125Z,5.28
2023-05-01T01:06:39.375Z,5.43
2023-05-01T01:09:57.830Z,5.59
2023-05-01T01:13:13.524Z,5.55
2023-05-01T01:16:24.779Z,5.70
2023-05-01T01:20:19.855Z,5.85
2023-05-01T01:24:13.973Z,6.25
2023-05-01T01:27:52.489Z,6.37
2023-05-01T01:31:12.242Z,6.29
2023-05-01T01:34:26.608Z,6.17
2023-05-01T01:37:44.293Z,6.28
2023-05-01T01:40:56.685Z,5.96
2023-05-01T01:44:13.528Z,6.55
2023-05-01T01:47:21.964Z,6.32
2023-05-01T01:50:32.468Z,6.57
2023-05-01T01:53:40.521Z,6.63
2023-05-01T01:56:48.800Z,6.44
2023-05-01T01:59:56.726Z,6.27
2023-05-01T02:03:04.825Z,6.24
2023-05-01T02:06:15.474Z,6.36
2023-05-01T02:09:23.245Z,6.05
2023-05-01T02:12:30.784Z,5.52
2023-05-01T02:15:37.383Z,5.57
2023-05-01T02:18:45.953Z,5.76
2023-05-01T02:21:55.305Z,4.73
2023-05-01T02:25:03.523Z,3.93
2023-05-01T02:28:13.885Z,4.56
2023-05-01T02:31:20.223Z,4.13
2023-05-01T02:34:26.227Z,4.18
2023-05-01T02:37:34.061Z,4.25
2023-05-01T02:40:41.236Z,4.81
2023-05-01T02:43:53.070Z,5.05
2023-05-01T02:47:02.246Z,5.36
2023-05-01T02:50:10.129Z,5.94
2023-05-01T02:53:18.819Z,6.04
2023-05-01T02:56:27.121Z,6.03
2023-05-01T02:59:33.467Z,6.23
2023-05-01T03:02:40.105Z,6.28
2023-05-01T03:05:46.363Z,6.07
2023-05-01T03:08:54.337Z,5.93
2023-05-01T03:12:01.174Z,6.21
2023-05-01T03:15:08.800Z,6.19
2023-05-01T03:18:15.579Z,6.33
2023-05-01T03:21:21.872Z,6.46
2023-05-01T03:24:29.403Z,6.44
2023-05-01T03:27:35.613Z,6.38
2023-05-01T03:30:41.516Z,6.41
2023-05-01T03:33:48.132Z,6.45
2023-05-01T03:36:54.481Z,6.29
2023-05-01T03:40:02.379Z,5.46
2023-05-01T03:43:08.605Z,5.20
2023-05-01T03:46:14.653Z,4.99
2023-05-01T03:49:20.724Z,5.19
2023-05-01T03:52:27.462Z,5.12
2023-05-01T03:55:34.964Z,5.17
2023-05-01T03:58:41.120Z,5.47
2023-05-01T04:01:47.533Z,5.77
2023-05-01T04:04:53.675Z,6.14
2023-05-01T04:07:59.712Z,6.20
2023-05-01T04:11:07.597Z,6.90
2023-05-01T04:14:13.685Z,6.78
2023-05-01T04:17:19.755Z,7.55
2023-05-01T04:20:25.826Z,7.64
2023-05-01T04:23:31.909Z,7.78
2023-05-01T04:26:39.254Z,8.17
2023-05-01T04:29:45.457Z,8.14
2023-05-01T04:32:51.455Z,7.67
2023-05-01T04:35:57.486Z,7.23
2023-05-01T04:39:03.644Z,7.68
2023-05-01T04:42:11.006Z,8.05
2023-05-01T04:45:17.205Z,8.31
2023-05-01T04:48:23.736Z,8.78
2023-05-01T04:51:30.290Z,8.67
2023-05-01T04:54:36.673Z,9.10
2023-05-01T04:57:44.232Z,8.43
2023-05-01T05:00:50.504Z,8.46
2023-05-01T05:03:56.811Z,8.88
2023-05-01T05:07:03.019Z,9.60
2023-05-01T05:10:09.886Z,9.73
2023-05-01T05:13:17.287Z,10.00
2023-05-01T05:16:23.613Z,10.31
2023-05-01T05:19:29.499Z,9.88
2023-05-01T05:22:37.450Z,10.59
2023-05-01T05:25:43.804Z,10.87
2023-05-01T05:28:51.712Z,11.31
2023-05-01T05:31:59.821Z,10.93
2023-05-01T05:35:06.605Z,11.12
2023-05-01T05:38:12.689Z,11.03
2023-05-01T05:41:18.909Z,11.12
2023-05-01T05:44:26.669Z,11.27
2023-05-01T05:47:32.830Z,11.68
2023-05-01T05:50:39.040Z,11.44
2023-05-01T05:53:45.480Z,11.12
2023-05-01T05:56:51.718Z,11.77
2023-05-01T05:59:59.612Z,12.53
2023-05-01T06:03:07.339Z,12.31
2023-05-01T06:06:13.627Z,12.40
2023-05-01T06:09:20.353Z,12.68
2023-05-01T06:12:26.493Z,12.61
2023-05-01T06:15:35.013Z,12.22
2023-05-01T06:18:41.124Z,13.13
2023-05-01T06:21:47.247Z,12.43
2023-05-01T06:24:53.572Z,12.77
2023-05-01T06:28:00.167Z,13.65
2023-05-01T06:31:07.701Z,12.80
2023-05-01T06:34:14.193Z,12.83
2023-05-01T06:37:21.161Z,13.98
2023-05-01T06:40:27.014Z,13.43
2023-05-01T06:43:33.642Z,14.50
2023-05-01T06:46:41.462Z,14.74
2023-05-01T06:49:47.920Z,15.36
2023-05-01T06:52:53.742Z,14.13
2023-05-01T06:56:00.111Z,15.19
2023-05-01T06:59:06.227Z,15.81
2023-05-01T07:02:13.921Z,15.76
2023-05-01T07:05:20.497Z,15.13
2023-05-01T07:08:28.328Z,15.68
2023-05-01T07:11:35.027Z,16.46
2023-05-01T07:14:41.913Z,15.71
2023-05-01T07:17:49.608Z,15.92
2023-05-01T07:20:55.943Z,16.44
2023-05-01T07:24:02.070Z,16.53
2023-05-01T07:27:08.348Z,17.36
2023-05-01T07:30:14.669Z,16.78
2023-05-01T07:33:22.232Z,16.42
2023-05-01T07:36:28.609Z,16.37
2023-05-01T07:39:34.669Z,17.57
2023-05-01T07:42:41.073Z,18.12
2023-05-01T07:45:56.599Z,18.10
2023-05-01T07:49:04.418Z,17.92
2023-05-01T07:52:11.081Z,18.71
2023-05-01T07:55:19.381Z,17.52
2023-05-01T07:58:25.473Z,17.37
2023-05-01T08:01:31.876Z,18.69
2023-05-01T08:04:39.775Z,19.49
2023-05-01T08:07:46.670Z,19.22
2023-05-01T08:10:53.483Z,19.66
2023-05-01T08:13:59.433Z,19.77
2023-05-01T08:17:05.346Z,20.03
2023-05-01T08:20:14.350Z,21.00
2023-05-01T08:23:20.291Z,20.56
2023-05-01T08:26:26.523Z,20.22
2023-05-01T08:29:32.691Z,19.36
2023-05-01T08:32:38.684Z,19.85
2023-05-01T08:35:46.417Z,20.82
2023-05-01T08:38:53.033Z,21.30
2023-05-01T08:42:00.153Z,21.88
2023-05-01T08:45:09.516Z,20.61
2023-05-01T08:48:19.188Z,21.22
2023-05-01T08:51:27.450Z,20.19
2023-05-01T08:54:36.679Z,21.60
2023-05-01T08:57:47.013Z,22.42
2023-05-01T09:00:56.667Z,21.56
2023-05-01T09:04:05.201Z,21.24
2023-05-01T09:07:13.587Z,20.97
2023-05-01T09:10:20.121Z,21.37
2023-05-01T09:13:27.008Z,20.41
2023-05-01T09:16:33.754Z,21.39
2023-05-01T09:19:40.880Z,20.89
2023-05-01T09:22:48.696Z,19.99
2023-05-01T09:25:56.411Z,19.24
2023-05-01T09:29:02.991Z,20.34
2023-05-01T09:32:20.806Z,20.23
2023-05-01T09:35:28.146Z,21.41
2023-05-01T09:38:35.306Z,20.16
2023-05-01T09:41:53.328Z,19.53
2023-05-01T09:45:00.193Z,21.42
2023-05-01T09:48:11.929Z,20.55
2023-05-01T09:51:23.173Z,19.17
2023-05-01T09:54:30.971Z,19.72
2023-05-01T09:57:38.333Z,18.69
2023-05-01T10:00:51.062Z,19.90
2023-05-01T10:03:57.909Z,19.55
2023-05-01T10:07:14.485Z,19.75
2023-05-01T10:10:23.550Z,18.81
2023-05-01T10:13:30.203Z,19.93
2023-05-01T10:16:37.243Z,19.68
2023-05-01T10:19:43.352Z,19.56
2023-05-01T10:22:50.065Z,20.39
2023-05-01T10:25:58.610Z,20.42
2023-05-01T10:29:06.120Z,20.58
2023-05-01T10:32:12.780Z,19.76
2023-05-01T10:35:26.052Z,19.49
2023-05-01T10:38:35.547Z,19.17
2023-05-01T10:42:04.865Z,18.54
2023-05-01T10:45:29.332Z,18.24
2023-05-01T10:48:54.571Z,17.67
2023-05-01T10:52:03.814Z,16.58
2023-05-01T10:55:35.298Z,17.40
2023-05-01T10:59:04.781Z,16.77
2023-05-01T11:02:23.675Z,16.81
2023-05-01T11:06:03.900Z,16.20
2023-05-01T11:09:43.946Z,16.25
2023-05-01T11:12:53.731Z,16.33
2023-05-01T11:16:21.199Z,15.90
2023-05-01T11:19:48.382Z,15.41
2023-05-01T11:22:55.861Z,15.64
2023-05-01T11:26:08.795Z,15.20
2023-05-01T11:29:14.952Z,15.38
2023-05-01T11:32:26.503Z,15.57
2023-05-01T11:35:34.212Z,15.45
2023-05-01T11:38:40.663Z,15.58
2023-05-01T11:41:47.325Z,16.02
2023-05-01T11:45:12.072Z,15.91
2023-05-01T11:48:20.145Z,16.28
2023-05-01T11:51:27.016Z,16.10
2023-05-01T11:54:33.254Z,16.17
2023-05-01T11:57:49.983Z,16.45
2023-05-01T12:00:55.971Z,16.80
2023-05-01T12:04:04.062Z,17.12
2023-05-01T12:07:21.927Z,16.83
2023-05-01T12:10:28.325Z,16.93
2023-05-01T12:13:34.706Z,17.02
2023-05-01T12:16:42.438Z,17.29
2023-05-01T12:19:50.086Z,17.87
2023-05-01T12:22:56.557Z,17.51
2023-05-01T12:26:04.544Z,17.38
2023-05-01T12:29:16.405Z,17.88
2023-05-01T12:32:34.024Z,17.91
2023-05-01T12:35:45.449Z,18.10
2023-05-01T12:38:57.524Z,17.85
2023-05-01T12:42:03.433Z,18.61
2023-05-01T12:45:14.870Z,18.99
2023-05-01T12:48:21.839Z,20.42
2023-05-01T12:51:29.432Z,19.10
2023-05-01T12:54:37.825Z,18.78
2023-05-01T12:57:54.832Z,19.33
2023-05-01T13:01:01.001Z,19.66
2023-05-01T13:04:07.348Z,19.32
2023-05-01T13:07:16.455Z,18.79
2023-05-01T13:10:32.822Z,19.38
2023-05-01T13:13:39.481Z,20.16
2023-05-01T13:16:47.598Z,19.52
2023-05-01T13:19:58.356Z,19.79
2023-05-01T13:23:13.001Z,20.46
2023-05-01T13:26:19.704Z,20.23
2023-05-01T13:29:27.050Z,19.26
2023-05-01T13:32:33.343Z,19.05
2023-05-01T13:35:41.215Z,19.68
2023-05-01T13:38:51.563Z,19.46
2023-05-01T13:41:57.862Z,19.51
2023-05-01T13:45:07.905Z,17.85
2023-05-01T13:48:14.313Z,18.30
2023-05-01T13:51:23.205Z,18.17
2023-05-01T13:54:30.968Z,17.58
2023-05-01T13:57:37.805Z,17.28
2023-05-01T14:00:46.218Z,17.46
2023-05-01T14:03:53.068Z,17.36
2023-05-01T14:07:01.443Z,17.04
2023-05-01T14:10:11.261Z,16.99
2023-05-01T14:13:19.958Z,16.99
2023-05-01T14:16:28.012Z,17.30
2023-05-01T14:19:34.615Z,17.19
2023-05-01T14:22:45.683Z,16.35
2023-05-01T14:25:53.675Z,16.75
2023-05-01T14:28:59.813Z,16.79
2023-05-01T14:32:06.707Z,16.53
2023-05-01T14:35:12.573Z,16.25
2023-05-01T14:38:20.031Z,16.27
2023-05-01T14:41:28.026Z,15.69
2023-05-01T14:44:34.775Z,15.45
2023-05-01T14:47:42.603Z,14.79
2023-05-01T14:50:48.669Z,14.95
2023-05-01T14:53:55.235Z,14.74
2023-05-01T14:57:06.620Z,14.70
2023-05-01T15:00:14.039Z,14.83
2023-05-01T15:03:20.404Z,14.91
2023-05-01T15:06:27.405Z,14.60
2023-05-01T15:09:33.858Z,14.48
2023-05-01T15:12:41.577Z,14.54
2023-05-01T15:15:47.563Z,14.61
2023-05-01T15:18:53.456Z,14.64
2023-05-01T15:21:59.467Z,14.61
2023-05-01T15:25:06.268Z,14.52
2023-05-01T15:28:14.981Z,14.54
2023-05-01T15:31:21.602Z,14.48
2023-05-01T15:34:28.000Z,14.42
2023-05-01T15:37:34.332Z,14.20
2023-05-01T15:40:40.563Z,14.26
2023-05-01T15:43:48.483Z,14.35
2023-05-01T15:46:55.074Z,14.49
2023-05-01T15:50:01.615Z,14.52
2023-05-01T15:53:08.365Z,14.57
2023-05-01T15:56:14.372Z,14.46
2023-05-01T15:59:22.356Z,14.44
2023-05-01T16:02:32.961Z,14.40
2023-05-01T16:05:40.716Z,14.32
2023-05-01T16:08:47.090Z,14.36
2023-05-01T16:11:53.412Z,14.30
2023-05-01T16:15:03.524Z,13.98
2023-05-01T16:18:11.390Z,14.07
2023-05-01T16:21:19.746Z,14.05
2023-05-01T16:24:26.595Z,14.00
2023-05-01T16:27:33.044Z,13.95
2023-05-01T16:30:43.949Z,13.91
2023-05-01T16:33:51.712Z,13.63
2023-05-01T16:36:58.449Z,13.57
2023-05-01T16:40:05.422Z,13.39
2023-05-01T16:43:11.820Z,13.23
2023-05-01T16:46:19.552Z,13.21
2023-05-01T16:49:27.422Z,12.92
2023-05-01T16:52:33.938Z,12.71
2023-05-01T16:55:40.184Z,12.59
2023-05-01T16:58:46.496Z,12.42
2023-05-01T17:01:54.249Z,12.28
2023-05-01T17:05:00.729Z,12.21
2023-05-01T17:08:06.944Z,12.16
2023-05-01T17:11:14.632Z,12.14
2023-05-01T17:14:21.124Z,12.00
2023-05-01T17:17:28.874Z,12.13
2023-05-01T17:20:35.170Z,12.22
2023-05-01T17:23:41.446Z,12.12
2023-05-01T17:26:47.875Z,12.12
2023-05-01T17:29:54.039Z,12.01
2023-05-01T17:33:01.741Z,11.99
2023-05-01T17:36:08.154Z,11.92
2023-05-01T17:39:14.694Z,11.79
2023-05-01T17:42:20.989Z,11.76
2023-05-01T17:45:26.937Z,12.02
2023-05-01T17:48:34.483Z,11.92
2023-05-01T17:51:40.840Z,11.75
2023-05-01T17:54:47.210Z,11.71
2023-05-01T17:57:53.757Z,11.71
2023-05-01T18:01:00.401Z,11.73
2023-05-01T18:04:09.141Z,11.76
2023-05-01T18:07:15.643Z,11.59
2023-05-01T18:10:21.897Z,11.77
2023-05-01T18:13:30.034Z,11.74
2023-05-01T18:16:36.631Z,11.79
2023-05-01T18:19:44.288Z,11.71
2023-05-01T18:22:50.756Z,11.83
2023-05-01T18:25:57.122Z,11.66
2023-05-01T18:29:03.849Z,11.53
2023-05-01T18:32:12.762Z,11.32
2023-05-01T18:35:21.894Z,11.11
2023-05-01T18:38:28.921Z,11.09
2023-05-01T18:41:35.651Z,11.33
2023-05-01T18:44:41.638Z,11.27
2023-05-01T18:47:48.033Z,11.11
2023-05-01T18:51:07.906Z,11.25
2023-05-01T18:54:16.364Z,11.06
2023-05-01T18:57:22.711Z,11.05
2023-05-01T19:00:29.337Z,11.07
2023-05-01T19:03:35.699Z,10.88
2023-05-01T19:06:43.594Z,10.90
2023-05-01T19:09:49.953Z,10.87
2023-05-01T19:12:56.431Z,10.99
2023-05-01T19:16:03.237Z,10.96
2023-05-01T19:19:10.949Z,10.95
2023-05-01T19:22:18.683Z,10.97
2023-05-01T19:25:25.317Z,10.81
2023-05-01T19:28:31.821Z,10.62
2023-05-01T19:31:38.696Z,10.64
2023-05-01T19:34:45.458Z,10.75
2023-05-01T19:37:56.721Z,10.78
2023-05-01T19:41:03.432Z,10.71
2023-05-01T19:44:10.305Z,10.44
2023-05-01T19:47:16.512Z,10.52
2023-05-01T19:50:22.828Z,10.51
2023-05-01T19:53:31.351Z,10.41
2023-05-01T19:56:38.702Z,10.40
2023-05-01T19:59:45.104Z,10.39
2023-05-01T20:02:51.504Z,10.36
2023-05-01T20:05:58.580Z,10.27
2023-05-01T20:09:07.331Z,10.25
2023-05-01T20:12:13.509Z,9.92
2023-05-01T20:15:20.080Z,9.82
2023-05-01T20:18:26.719Z,10.11
2023-05-01T20:21:32.952Z,10.01
2023-05-01T20:24:41.217Z,10.09
2023-05-01T20:27:47.396Z,9.89
2023-05-01T20:30:54.092Z,9.67
2023-05-01T20:34:00.899Z,9.73
2023-05-01T20:37:07.049Z,9.59
2023-05-01T20:40:16.566Z,9.61
2023-05-01T20:43:22.464Z,9.63
2023-05-01T20:46:28.729Z,9.46
2023-05-01T20:49:34.876Z,9.56
2023-05-01T20:52:41.309Z,9.51
2023-05-01T20:55:49.941Z,9.55
2023-05-01T20:58:56.314Z,9.33
2023-05-01T21:02:05.470Z,9.11
2023-05-01T21:05:12.121Z,9.02
2023-05-01T21:08:18.459Z,8.97
2023-05-01T21:11:26.285Z,8.96
2023-05-01T21:14:32.401Z,8.83
2023-05-01T21:17:40.847Z,9.31
2023-05-01T21:20:48.368Z,9.42
2023-05-01T21:23:55.042Z,9.17
2023-05-01T21:27:03.896Z,9.17
2023-05-01T21:30:16.081Z,9.14
2023-05-01T21:33:22.241Z,9.23
2023-05-01T21:36:28.353Z,9.21
2023-05-01T21:39:34.808Z,9.39
2023-05-01T21:42:42.209Z,9.33
2023-05-01T21:45:48.281Z,9.18
2023-05-01T21:48:54.544Z,9.34
2023-05-01T21:52:01.205Z,9.39
2023-05-01T21:55:09.309Z,9.22
2023-05-01T21:58:16.790Z,9.34
2023-05-01T22:01:24.703Z,9.26
2023-05-01T22:04:31.565Z,9.37
2023-05-01T22:07:40.118Z,9.37
2023-05-01T22:10:46.274Z,9.22
2023-05-01T22:13:54.345Z,9.30
2023-05-01T22:17:00.777Z,9.29
2023-05-01T22:20:10.005Z,9.24
2023-05-01T22:23:16.144Z,9.23
2023-05-01T22:26:22.201Z,8.91
2023-05-01T22:29:29.902Z,9.10
2023-05-01T22:32:36.678Z,9.05
2023-05-01T22:35:43.001Z,8.99
2023-05-01T22:38:49.201Z,8.89
2023-05-01T22:41:55.763Z,8.85
2023-05-01T22:45:03.178Z,8.75
2023-05-01T22:48:10.605Z,8.69
2023-05-01T22:51:16.732Z,8.62
2023-05-01T22:54:22.608Z,8.84
2023-05-01T22:57:28.843Z,8.81
2023-05-01T23:00:36.742Z,8.82
2023-05-01T23:03:43.043Z,8.83
2023-05-01T23:06:49.178Z,8.69
2023-05-01T23:09:57.373Z,8.73
2023-05-01T23:13:05.043Z,8.42
2023-05-01T23:16:15.586Z,8.51
2023-05-01T23:19:23.289Z,8.53
2023-05-01T23:22:31.310Z,8.32
2023-05-01T23:25:37.504Z,8.16
2023-05-01T23:28:44.112Z,8.27
2023-05-01T23:31:51.942Z,8.21
2023-05-01T23:35:06.218Z,8.18
2023-05-01T23:38:13.925Z,8.15
2023-05-01T23:41:20.553Z,8.12
2023-05-01T23:44:26.921Z,7.76
2023-05-01T23:47:35.028Z,7.88
2023-05-01T23:50:41.557Z,7.88
2023-05-01T23:53:48.008Z,7.90
2023-05-01T23:56:54.598Z,7.91
